FDX1424 KMEM-KEWR
Flight info
| Callsign | FDX1424 |
|---|---|
| Flight time | N/A |
| Altitude | 37000 |
| Route | GOETZ7 DIYAB HITMN Q34 GVE PHLBO4 |
| Aircraft | B77L/H-SDE1E2E3FGHIJ2J3J4J5M1RWXY/LB1D1 |
Departure
| Time | N/A |
|---|---|
| Airport | Memphis International Airport (KMEM) |
Arrival
| Time | 2026-04-25 02:47 |
|---|---|
| Airport | Newark Liberty International Airport (KEWR) |
| Time | Latitude | Longitude | Altitude | Speed | Heading |
|---|---|---|---|---|---|
| 2026-04-25 02:14 | 38.53382 | -77.09428 | 36883 ft | 488 kts | 53° |
| 2026-04-25 02:15 | 38.56936 | -77.02060 | 36879 ft | 487 kts | 53° |
| 2026-04-25 02:15 | 38.60485 | -76.94689 | 36876 ft | 486 kts | 53° |
| 2026-04-25 02:16 | 38.64026 | -76.87315 | 36875 ft | 487 kts | 53° |
| 2026-04-25 02:16 | 38.66987 | -76.81134 | 36885 ft | 486 kts | 52° |
| 2026-04-25 02:17 | 38.70496 | -76.73797 | 36876 ft | 486 kts | 52° |
| 2026-04-25 02:17 | 38.74030 | -76.66419 | 36885 ft | 484 kts | 51° |
| 2026-04-25 02:17 | 38.76120 | -76.63115 | 36870 ft | 471 kts | 35° |
| 2026-04-25 02:18 | 38.78674 | -76.60603 | 36891 ft | 463 kts | 30° |
| 2026-04-25 02:18 | 38.83920 | -76.55737 | 36891 ft | 466 kts | 31° |
| 2026-04-25 02:19 | 38.89118 | -76.50731 | 36904 ft | 468 kts | 32° |
| 2026-04-25 02:19 | 38.94282 | -76.45654 | 36891 ft | 461 kts | 32° |
| 2026-04-25 02:19 | 38.96810 | -76.43162 | 36355 ft | 458 kts | 31° |
| 2026-04-25 02:20 | 38.99332 | -76.40684 | 35736 ft | 455 kts | 31° |
| 2026-04-25 02:20 | 39.01846 | -76.38213 | 34999 ft | 456 kts | 32° |
| 2026-04-25 02:20 | 39.04307 | -76.35609 | 34186 ft | 461 kts | 36° |
| 2026-04-25 02:20 | 39.06705 | -76.32837 | 33260 ft | 466 kts | 37° |
| 2026-04-25 02:21 | 39.09103 | -76.30016 | 32327 ft | 469 kts | 37° |
| 2026-04-25 02:21 | 39.11516 | -76.27168 | 31395 ft | 472 kts | 37° |
| 2026-04-25 02:21 | 39.13949 | -76.24305 | 30457 ft | 475 kts | 37° |
| 2026-04-25 02:21 | 39.16390 | -76.21440 | 29759 ft | 473 kts | 37° |
| 2026-04-25 02:22 | 39.18816 | -76.18599 | 28999 ft | 470 kts | 37° |
| 2026-04-25 02:22 | 39.21221 | -76.15782 | 28328 ft | 465 kts | 37° |
| 2026-04-25 02:22 | 39.23604 | -76.12992 | 27705 ft | 460 kts | 37° |
| 2026-04-25 02:22 | 39.25961 | -76.10230 | 27034 ft | 455 kts | 37° |
| 2026-04-25 02:23 | 39.28286 | -76.07501 | 26585 ft | 447 kts | 37° |
| 2026-04-25 02:23 | 39.30568 | -76.04817 | 26214 ft | 442 kts | 37° |
| 2026-04-25 02:23 | 39.32852 | -76.02134 | 25836 ft | 446 kts | 37° |
| 2026-04-25 02:23 | 39.35158 | -75.99425 | 25470 ft | 449 kts | 37° |
| 2026-04-25 02:24 | 39.37463 | -75.96714 | 25079 ft | 447 kts | 37° |
| 2026-04-25 02:24 | 39.39750 | -75.94014 | 24708 ft | 444 kts | 37° |
| 2026-04-25 02:24 | 39.42022 | -75.91330 | 24330 ft | 441 kts | 37° |
| 2026-04-25 02:24 | 39.44273 | -75.88668 | 23958 ft | 437 kts | 37° |
| 2026-04-25 02:25 | 39.46514 | -75.86017 | 23576 ft | 435 kts | 37° |
| 2026-04-25 02:25 | 39.48735 | -75.83388 | 23158 ft | 432 kts | 37° |
| 2026-04-25 02:25 | 39.50943 | -75.80774 | 22759 ft | 428 kts | 37° |
| 2026-04-25 02:25 | 39.53131 | -75.78178 | 22396 ft | 425 kts | 37° |
| 2026-04-25 02:26 | 39.55308 | -75.75595 | 22021 ft | 422 kts | 37° |
| 2026-04-25 02:26 | 39.57469 | -75.73028 | 21655 ft | 420 kts | 37° |
| 2026-04-25 02:26 | 39.59588 | -75.70510 | 21316 ft | 418 kts | 37° |
| 2026-04-25 02:26 | 39.61726 | -75.67966 | 20959 ft | 417 kts | 37° |
| 2026-04-25 02:27 | 39.63859 | -75.65427 | 20604 ft | 416 kts | 37° |
| 2026-04-25 02:27 | 39.65985 | -75.62894 | 20249 ft | 415 kts | 37° |
| 2026-04-25 02:27 | 39.68109 | -75.60361 | 19884 ft | 414 kts | 38° |
| 2026-04-25 02:27 | 39.70231 | -75.57818 | 19473 ft | 416 kts | 38° |
| 2026-04-25 02:28 | 39.72355 | -75.55263 | 19044 ft | 417 kts | 38° |
| 2026-04-25 02:28 | 39.74484 | -75.52697 | 18639 ft | 417 kts | 38° |
| 2026-04-25 02:28 | 39.76600 | -75.50142 | 18208 ft | 414 kts | 38° |
| 2026-04-25 02:28 | 39.78702 | -75.47603 | 17736 ft | 409 kts | 38° |
| 2026-04-25 02:29 | 39.80773 | -75.45098 | 17303 ft | 404 kts | 38° |
| 2026-04-25 02:29 | 39.82816 | -75.42626 | 16894 ft | 399 kts | 38° |
| 2026-04-25 02:29 | 39.84841 | -75.40176 | 16508 ft | 396 kts | 38° |
| 2026-04-25 02:29 | 39.86849 | -75.37747 | 16116 ft | 393 kts | 38° |
| 2026-04-25 02:30 | 39.88843 | -75.35332 | 15722 ft | 390 kts | 38° |
| 2026-04-25 02:30 | 39.90824 | -75.32931 | 15339 ft | 388 kts | 38° |
| 2026-04-25 02:30 | 39.92796 | -75.30539 | 14949 ft | 387 kts | 38° |
| 2026-04-25 02:30 | 39.94760 | -75.28154 | 14558 ft | 386 kts | 38° |
| 2026-04-25 02:31 | 39.96719 | -75.25774 | 14188 ft | 385 kts | 38° |
| 2026-04-25 02:31 | 39.98676 | -75.23392 | 13785 ft | 385 kts | 38° |
| 2026-04-25 02:31 | 40.00631 | -75.21012 | 13354 ft | 384 kts | 38° |
| 2026-04-25 02:31 | 40.02577 | -75.18641 | 12951 ft | 383 kts | 38° |
| 2026-04-25 02:32 | 40.04518 | -75.16273 | 12542 ft | 381 kts | 38° |
| 2026-04-25 02:32 | 40.06446 | -75.13920 | 12155 ft | 379 kts | 38° |
| 2026-04-25 02:32 | 40.08364 | -75.11577 | 11829 ft | 375 kts | 38° |
| 2026-04-25 02:32 | 40.10253 | -75.09266 | 11435 ft | 367 kts | 38° |
| 2026-04-25 02:33 | 40.12005 | -75.07109 | 11052 ft | 335 kts | 37° |
| 2026-04-25 02:33 | 40.13648 | -75.05084 | 10724 ft | 306 kts | 36° |
| 2026-04-25 02:33 | 40.15121 | -75.03272 | 10472 ft | 285 kts | 36° |
| 2026-04-25 02:33 | 40.16541 | -75.01535 | 9947 ft | 275 kts | 36° |
| 2026-04-25 02:34 | 40.17932 | -74.99839 | 9118 ft | 272 kts | 36° |
| 2026-04-25 02:34 | 40.19302 | -74.98167 | 8467 ft | 265 kts | 36° |
| 2026-04-25 02:34 | 40.20609 | -74.96563 | 8089 ft | 251 kts | 36° |
| 2026-04-25 02:34 | 40.21880 | -74.95005 | 7846 ft | 253 kts | 36° |
| 2026-04-25 02:35 | 40.23183 | -74.93411 | 7638 ft | 260 kts | 37° |
| 2026-04-25 02:35 | 40.24518 | -74.91775 | 7432 ft | 267 kts | 37° |
| 2026-04-25 02:35 | 40.25862 | -74.90083 | 7187 ft | 269 kts | 40° |
| 2026-04-25 02:35 | 40.27129 | -74.88314 | 6941 ft | 264 kts | 42° |
| 2026-04-25 02:36 | 40.28361 | -74.86563 | 6684 ft | 258 kts | 42° |
| 2026-04-25 02:36 | 40.29565 | -74.84852 | 6427 ft | 254 kts | 42° |
| 2026-04-25 02:36 | 40.30766 | -74.83160 | 6166 ft | 254 kts | 42° |
| 2026-04-25 02:36 | 40.31968 | -74.81467 | 5927 ft | 254 kts | 43° |
| 2026-04-25 02:37 | 40.33174 | -74.79773 | 5682 ft | 254 kts | 43° |
| 2026-04-25 02:37 | 40.34381 | -74.78075 | 5439 ft | 256 kts | 44° |
| 2026-04-25 02:37 | 40.35605 | -74.76354 | 5215 ft | 260 kts | 44° |
| 2026-04-25 02:37 | 40.36847 | -74.74606 | 4962 ft | 263 kts | 45° |
| 2026-04-25 02:38 | 40.38096 | -74.72847 | 4726 ft | 262 kts | 45° |
| 2026-04-25 02:38 | 40.39330 | -74.71106 | 4465 ft | 259 kts | 45° |
| 2026-04-25 02:38 | 40.40554 | -74.69380 | 4204 ft | 257 kts | 45° |
| 2026-04-25 02:38 | 40.41764 | -74.67669 | 3929 ft | 252 kts | 47° |
| 2026-04-25 02:39 | 40.42646 | -74.65737 | 3623 ft | 247 kts | 72° |
| 2026-04-25 02:39 | 40.43119 | -74.63565 | 3434 ft | 250 kts | 73° |
| 2026-04-25 02:39 | 40.43625 | -74.61359 | 3200 ft | 254 kts | 73° |
| 2026-04-25 02:39 | 40.44144 | -74.59148 | 3006 ft | 252 kts | 73° |
| 2026-04-25 02:40 | 40.44656 | -74.56977 | 2891 ft | 247 kts | 74° |
| 2026-04-25 02:40 | 40.45162 | -74.54829 | 2773 ft | 246 kts | 74° |
| 2026-04-25 02:40 | 40.45670 | -74.52678 | 2634 ft | 248 kts | 75° |
| 2026-04-25 02:40 | 40.46181 | -74.50512 | 2551 ft | 248 kts | 75° |
| 2026-04-25 02:41 | 40.46685 | -74.48375 | 2531 ft | 242 kts | 74° |
| 2026-04-25 02:41 | 40.47182 | -74.46275 | 2469 ft | 239 kts | 75° |
| 2026-04-25 02:41 | 40.47663 | -74.44244 | 2475 ft | 227 kts | 75° |
| 2026-04-25 02:41 | 40.48118 | -74.42315 | 2474 ft | 218 kts | 74° |
| 2026-04-25 02:42 | 40.48566 | -74.40415 | 2482 ft | 218 kts | 75° |
| 2026-04-25 02:42 | 40.49014 | -74.38511 | 2489 ft | 218 kts | 75° |
| 2026-04-25 02:42 | 40.49462 | -74.36605 | 2503 ft | 218 kts | 75° |
| 2026-04-25 02:42 | 40.49909 | -74.34705 | 2505 ft | 215 kts | 74° |
| 2026-04-25 02:43 | 40.50346 | -74.32853 | 2493 ft | 209 kts | 75° |
| 2026-04-25 02:43 | 40.50770 | -74.31048 | 2496 ft | 206 kts | 75° |
| 2026-04-25 02:43 | 40.51196 | -74.29229 | 2515 ft | 209 kts | 73° |
| 2026-04-25 02:43 | 40.51925 | -74.27592 | 2504 ft | 214 kts | 42° |
| 2026-04-25 02:44 | 40.53209 | -74.26605 | 2510 ft | 221 kts | 25° |
| 2026-04-25 02:44 | 40.54614 | -74.25773 | 2508 ft | 219 kts | 28° |
| 2026-04-25 02:44 | 40.55943 | -74.24932 | 2485 ft | 205 kts | 28° |
| 2026-04-25 02:44 | 40.57211 | -74.24127 | 2439 ft | 198 kts | 28° |
| 2026-04-25 02:45 | 40.58458 | -74.23334 | 2134 ft | 197 kts | 28° |
| 2026-04-25 02:45 | 40.59685 | -74.22556 | 1867 ft | 195 kts | 29° |
| 2026-04-25 02:45 | 40.60904 | -74.21782 | 1658 ft | 193 kts | 29° |
| 2026-04-25 02:45 | 40.62072 | -74.21040 | 1403 ft | 179 kts | 28° |
| 2026-04-25 02:46 | 40.63127 | -74.20370 | 1129 ft | 159 kts | 28° |
| 2026-04-25 02:46 | 40.64048 | -74.19785 | 896 ft | 137 kts | 30° |
| 2026-04-25 02:46 | 40.64927 | -74.19221 | 798 ft | 143 kts | 30° |
| 2026-04-25 02:46 | 40.65835 | -74.18618 | 647 ft | 151 kts | 28° |
| 2026-04-25 02:47 | 40.66788 | -74.18027 | 373 ft | 151 kts | 26° |
| 2026-04-25 02:47 | 40.67726 | -74.17443 | 118 ft | 148 kts | 28° |
| 2026-04-25 02:47 | 40.68622 | -74.16873 | 26 ft | 132 kts | 27° |
| 2026-04-25 02:47 | 40.69199 | -74.16513 | 29 ft | 43 kts | 25° |
| 2026-04-25 02:48 | 40.69347 | -74.16453 | 30 ft | 16 kts | 4° |
| 2026-04-25 02:48 | 40.69458 | -74.16470 | 29 ft | 17 kts | 329° |
| 2026-04-25 02:48 | 40.69445 | -74.16569 | 27 ft | 13 kts | 216° |
| 2026-04-25 02:48 | 40.69421 | -74.16674 | 27 ft | 14 kts | 289° |
| 2026-04-25 02:49 | 40.69461 | -74.16788 | 27 ft | 14 kts | 296° |
| 2026-04-25 02:49 | 40.69450 | -74.16889 | 27 ft | 13 kts | 214° |
| 2026-04-25 02:49 | 40.69368 | -74.16942 | 26 ft | 13 kts | 206° |
| 2026-04-25 02:49 | 40.69265 | -74.17007 | 27 ft | 18 kts | 205° |
| 2026-04-25 02:50 | 40.69154 | -74.17077 | 28 ft | 18 kts | 206° |
| 2026-04-25 02:50 | 40.69041 | -74.17151 | 23 ft | 18 kts | 206° |
| 2026-04-25 02:50 | 40.68927 | -74.17222 | 28 ft | 18 kts | 205° |
| 2026-04-25 02:50 | 40.68813 | -74.17293 | 28 ft | 18 kts | 206° |
| 2026-04-25 02:51 | 40.68700 | -74.17368 | 31 ft | 18 kts | 207° |
| 2026-04-25 02:51 | 40.68585 | -74.17440 | 31 ft | 18 kts | 205° |
| 2026-04-25 02:51 | 40.68466 | -74.17514 | 29 ft | 19 kts | 206° |
| 2026-04-25 02:51 | 40.68346 | -74.17591 | 27 ft | 20 kts | 206° |
| 2026-04-25 02:52 | 40.68216 | -74.17673 | 27 ft | 21 kts | 205° |
| 2026-04-25 02:52 | 40.68099 | -74.17749 | 27 ft | 17 kts | 206° |
| 2026-04-25 02:52 | 40.68013 | -74.17804 | 28 ft | 12 kts | 206° |
| 2026-04-25 02:52 | 40.67952 | -74.17873 | 27 ft | 12 kts | 254° |
| 2026-04-25 02:53 | 40.67977 | -74.17976 | 28 ft | 12 kts | 298° |
| 2026-04-25 02:53 | 40.68004 | -74.18051 | 28 ft | 0 kts | 294° |